map of CAC home
CAC - Airport
Location
City:  Cascavel, Paraná, Brazil
ICAO:SBCA
IATA:CAC

Details
Type:Airport (Aerodrome, Airfield)
Latitude:25°00'01"S (-25.000338)
Longitude:53°30'03"W (-53.500763)
Datum:WGS 1984
Elevation:2473 ft (754 m)
Variation:17.30°W (WMM2015 magnetic declination)
-0.17° annual change
Runways:1
Longest:5299 × 98 ft (1615 × 30 m), paved

Time
Time Zone:UTC-3 (DST-2)
Local Time:

Weather
METAR:SBCA 162100Z 01008KT 9999 FEW025 FEW030TCU SCT080 28/18 Q1014

Related Locations
Nearby:
Farthest:MMY: 12369 mi / 19906 km
Miyakojima [Miyako Airport], Miyakojima Island, 47, JP

Find:

   beyond  
but within

Other Information
Maps:
NOTAMs:
Links:
Sources:

  
  • flag of Brazil
  • flag of Paraná
  

Sectional Chart

Flight Planning
at skyvector.com

Satellite Image

Google Maps Satellite view

 

Copyright © 2004-2018 Karl L. Swartz. All rights reserved.
The Great Circle Mapper name and logo are trademarks of the Great Circle Mapper.
All other trademarks mentioned herein belong to their respective owners.
Please see credits for attibutions and further copyright information.

  Follow gcmap on Facebook Follow gcmap on Twitter Follow gcmap on Google+ GCmap on LinkedIn

hCard Microformat

Geo Microformat